Time;durP1;ratioP1;P1;durP2;ratioP2;P2;SDS_P1;SDS_P2;PMS_P1;PMS_P2;Temp;Humidity;BMP_temperature;BMP_pressure;BME280_temperature;BME280_humidity;BME280_pressure;Samples;Min_cycle;Max_cycle;Signal;HPM_P1;HPM_P2
2022/11/29 00:00:33;;;;;;;4.88;3.33;;;;;;;4.52;71.04;95448.41;5029802;28;20046;-77
2022/11/29 00:02:58;;;;;;;3.70;3.03;;;;;;;4.50;71.01;95453.09;5011839;28;20040;-77
2022/11/29 00:05:25;;;;;;;4.85;3.08;;;;;;;3.88;70.81;95355.59;5028787;28;20037;-77
2022/11/29 00:07:51;;;;;;;3.70;2.90;;;;;;;4.25;71.17;95391.09;5045846;28;20049;-77
2022/11/29 00:10:16;;;;;;;4.57;2.17;;;;;;;4.13;70.13;95376.34;5025255;28;20041;-77
2022/11/29 00:12:42;;;;;;;4.10;2.60;;;;;;;4.62;70.80;95449.44;5033318;28;20044;-77
2022/11/29 00:15:09;;;;;;;4.00;2.90;;;;;;;4.07;70.62;95379.91;5044229;28;20045;-77
2022/11/29 00:17:35;;;;;;;3.92;2.83;;;;;;;4.61;69.83;95465.41;5010880;28;20029;-76
2022/11/29 00:20:01;;;;;;;4.28;2.92;;;;;;;4.20;70.50;95390.16;5031066;28;20040;-77
2022/11/29 00:22:27;;;;;;;4.57;3.00;;;;;;;4.23;70.06;95394.97;5029427;28;20041;-77
2022/11/29 00:24:52;;;;;;;4.00;2.72;;;;;;;4.50;70.42;95453.88;5029536;28;20397;-77
2022/11/29 00:27:18;;;;;;;6.25;2.67;;;;;;;4.13;70.27;95405.22;5034604;28;20032;-77
2022/11/29 00:29:43;;;;;;;4.25;2.78;;;;;;;4.08;70.65;95400.69;5029336;28;20049;-77
2022/11/29 00:32:09;;;;;;;3.60;2.50;;;;;;;4.55;70.75;95458.47;5038126;28;20038;-77
2022/11/29 00:34:35;;;;;;;5.40;2.70;;;;;;;4.49;70.53;95456.75;5027857;28;20699;-77
2022/11/29 00:37:01;;;;;;;5.65;3.03;;;;;;;4.36;70.29;95444.63;5039342;28;20045;-77
2022/11/29 00:39:26;;;;;;;3.67;2.58;;;;;;;4.38;70.21;95434.69;5011492;28;20413;-77
2022/11/29 00:41:52;;;;;;;5.40;2.85;;;;;;;4.49;69.85;95441.78;5011283;28;20030;-77
2022/11/29 00:44:18;;;;;;;4.43;2.65;;;;;;;4.22;69.53;95444.06;5044545;28;20057;-77
2022/11/29 00:46:44;;;;;;;4.47;2.78;;;;;;;3.59;69.95;95331.03;5028374;28;20040;-77
2022/11/29 00:49:09;;;;;;;5.68;3.60;;;;;;;3.94;69.31;95394.06;5046306;28;20041;-77
2022/11/29 00:51:35;;;;;;;4.05;3.20;;;;;;;4.10;69.18;95408.34;5011240;28;20038;-77
2022/11/29 00:54:00;;;;;;;6.60;3.63;;;;;;;4.53;69.28;95466.56;5030949;28;20033;-77
2022/11/29 00:56:26;;;;;;;6.07;3.65;;;;;;;4.50;69.59;95453.88;5013235;28;20100;-77
2022/11/29 00:58:51;;;;;;;5.43;3.70;;;;;;;4.46;69.56;95460.63;5032183;28;20075;-77
2022/11/29 01:01:17;;;;;;;5.55;3.45;;;;;;;3.97;69.86;95392.81;5040845;28;20120;-76
2022/11/29 01:03:42;;;;;;;4.95;3.22;;;;;;;4.46;69.66;95457.19;5053225;28;20387;-75
2022/11/29 01:06:14;;;;;;;5.75;3.60;;;;;;;4.10;69.84;95400.47;5035043;28;20041;-75
2022/11/29 01:08:40;;;;;;;8.02;4.10;;;;;;;4.06;70.00;95399.28;5016872;28;20044;-75
2022/11/29 01:11:11;;;;;;;11.32;5.50;;;;;;;4.44;69.58;95448.75;5032778;28;20108;-75
2022/11/29 01:13:37;;;;;;;11.53;6.30;;;;;;;4.36;70.01;95428.06;5032566;28;20116;-76
2022/11/29 01:16:03;;;;;;;14.00;5.47;;;;;;;4.46;69.70;95452.75;5048236;28;20137;-75
2022/11/29 01:18:29;;;;;;;10.52;5.55;;;;;;;4.32;69.88;95459.25;5047784;28;20050;-75
2022/11/29 01:21:03;;;;;;;9.55;5.72;;;;;;;4.32;70.25;95447.94;5032657;28;20064;-76
2022/11/29 01:23:30;;;;;;;11.82;5.32;;;;;;;4.44;70.47;95449.53;5032779;28;20033;-75
2022/11/29 01:26:03;;;;;;;10.05;5.40;;;;;;;4.48;70.14;95447.28;5032359;28;20479;-76
2022/11/29 01:28:29;;;;;;;10.15;5.47;;;;;;;4.11;69.85;95384.50;5032181;28;20061;-76
2022/11/29 01:30:54;;;;;;;9.02;5.07;;;;;;;4.16;69.21;95391.66;5032413;28;20475;-75
2022/11/29 01:33:20;;;;;;;7.93;4.07;;;;;;;4.31;69.76;95423.50;5032115;28;20076;-76
2022/11/29 01:35:51;;;;;;;6.80;4.57;;;;;;;4.17;69.70;95404.56;5032558;28;20062;-75
2022/11/29 01:38:17;;;;;;;11.43;5.13;;;;;;;4.26;70.24;95413.72;5047685;28;20037;-76
2022/11/29 01:40:43;;;;;;;7.68;5.00;;;;;;;4.39;70.14;95433.69;5047432;28;20507;-76
2022/11/29 01:43:17;;;;;;;8.40;4.65;;;;;;;4.35;70.22;95431.75;5047742;28;20530;-76
2022/11/29 01:45:44;;;;;;;6.97;4.60;;;;;;;4.41;70.37;95428.22;5047077;28;20057;-76
2022/11/29 01:48:12;;;;;;;7.35;4.45;;;;;;;3.63;70.68;95350.56;5034237;28;20044;-76
2022/11/29 01:50:39;;;;;;;7.55;4.00;;;;;;;4.26;70.57;95429.47;5049155;28;20030;-76
2022/11/29 01:53:07;;;;;;;7.78;4.38;;;;;;;3.59;70.94;95327.59;5014476;28;20041;-76
2022/11/29 01:55:36;;;;;;;6.97;4.55;;;;;;;3.62;70.77;95335.84;5031955;28;20132;-76
2022/11/29 01:58:04;;;;;;;7.50;4.45;;;;;;;3.88;70.66;95363.47;5032001;28;20099;-76
2022/11/29 02:00:30;;;;;;;8.30;4.72;;;;;;;3.68;70.01;95348.03;5031002;28;20073;-76
2022/11/29 02:03:00;;;;;;;9.38;4.78;;;;;;;4.17;70.67;95422.94;5031945;28;20060;-76
2022/11/29 02:05:26;;;;;;;13.77;5.00;;;;;;;4.17;70.15;95409.81;5031707;28;20084;-76
2022/11/29 02:07:55;;;;;;;7.75;4.30;;;;;;;4.20;70.61;95417.22;5030359;28;20025;-76
2022/11/29 02:10:31;;;;;;;7.35;4.45;;;;;;;4.15;70.68;95380.38;5013383;28;20056;-76
2022/11/29 02:13:32;;;;;;;7.70;4.50;;;;;;;4.23;70.43;95406.28;5013466;28;20037;-76
2022/11/29 02:16:10;;;;;;;10.25;5.20;;;;;;;4.16;70.41;95413.47;5031626;28;20420;-76
2022/11/29 02:18:47;;;;;;;6.35;4.70;;;;;;;4.26;70.22;95418.97;5031866;28;20400;-76
2022/11/29 02:21:21;;;;;;;8.25;4.50;;;;;;;3.85;70.23;95341.09;5031196;28;20042;-76
2022/11/29 02:24:15;;;;;;;8.25;4.75;;;;;;;4.25;70.38;95414.72;5031688;28;20453;-76
2022/11/29 02:26:56;;;;;;;7.95;4.45;;;;;;;4.20;70.73;95413.78;5015914;28;20504;-76
2022/11/29 02:30:06;;;;;;;8.75;5.55;;;;;;;4.28;70.99;95410.84;5035095;28;20043;-76
2022/11/29 02:32:37;;;;;;;9.15;4.80;;;;;;;4.10;70.75;95392.59;5033178;28;20083;-76
2022/11/29 02:35:42;;;;;;;13.02;4.93;;;;;;;4.31;71.04;95410.38;5033397;28;20746;-76
2022/11/29 02:38:25;;;;;;;9.18;4.95;;;;;;;4.30;71.21;95410.59;4990590;28;20049;-77
2022/11/29 02:41:03;;;;;;;9.40;5.25;;;;;;;4.26;71.15;95412.91;5032706;28;20033;-77
2022/11/29 02:43:47;;;;;;;12.02;5.07;;;;;;;4.31;71.09;95418.25;5050850;28;20044;-77
2022/11/29 02:46:12;;;;;;;11.10;5.93;;;;;;;4.33;70.54;95423.28;5051257;28;20049;-77
2022/11/29 02:49:01;;;;;;;9.45;4.93;;;;;;;4.26;70.63;95426.84;5033189;28;20040;-77
2022/11/29 02:51:38;;;;;;;8.15;4.63;;;;;;;4.24;71.10;95420.22;5050285;28;20068;-77
2022/11/29 02:54:12;;;;;;;13.38;5.60;;;;;;;4.27;70.63;95425.00;5051116;28;20045;-77
2022/11/29 02:56:58;;;;;;;12.52;6.05;;;;;;;4.28;70.53;95416.88;4998217;28;20065;-77
2022/11/29 03:00:04;;;;;;;13.60;6.20;;;;;;;4.32;70.82;95412.00;5050415;28;20048;-77
2022/11/29 03:02:52;;;;;;;9.23;5.30;;;;;;;4.19;70.93;95409.59;5050067;28;20099;-77
2022/11/29 03:05:28;;;;;;;9.57;5.25;;;;;;;3.59;71.18;95319.75;5032819;28;20056;-77
2022/11/29 03:08:16;;;;;;;12.95;5.65;;;;;;;4.21;71.10;95421.44;5015235;28;20121;-77
2022/11/29 03:11:11;;;;;;;10.00;5.18;;;;;;;4.08;70.69;95390.19;5050622;28;20063;-77
2022/11/29 03:13:46;;;;;;;8.57;5.38;;;;;;;4.22;71.32;95420.44;5019471;28;20069;-77
2022/11/29 03:16:23;;;;;;;7.68;4.68;;;;;;;4.21;71.17;95410.94;5046037;28;20072;-77
2022/11/29 03:19:04;;;;;;;9.63;4.72;;;;;;;4.03;71.66;95387.44;5030468;28;20045;-77
2022/11/29 03:21:43;;;;;;;7.70;4.30;;;;;;;3.74;71.46;95339.25;5030299;28;20124;-77
2022/11/29 03:24:17;;;;;;;9.15;4.18;;;;;;;3.62;71.26;95320.09;5030101;28;20136;-77
2022/11/29 03:26:58;;;;;;;9.05;4.40;;;;;;;4.33;71.17;95420.66;5012695;28;20511;-77
2022/11/29 03:29:34;;;;;;;8.33;3.77;;;;;;;3.88;71.02;95363.47;5012265;28;20048;-77
2022/11/29 03:32:03;;;;;;;6.93;4.15;;;;;;;4.23;70.79;95429.09;5030384;28;20314;-77
2022/11/29 03:34:49;;;;;;;8.90;4.07;;;;;;;4.25;71.53;95425.22;5045256;28;20049;-76
2022/11/29 03:37:19;;;;;;;7.70;3.58;;;;;;;4.09;70.78;95411.97;5045395;28;20045;-76
2022/11/29 03:39:44;;;;;;;6.72;3.88;;;;;;;4.29;70.92;95438.69;5012212;28;20479;-76
2022/11/29 03:42:15;;;;;;;6.43;3.47;;;;;;;3.36;70.85;95300.31;5012565;28;20053;-76
2022/11/29 03:44:51;;;;;;;7.33;3.97;;;;;;;4.32;70.88;95433.00;5029708;28;20528;-76
2022/11/29 03:47:42;;;;;;;12.80;4.10;;;;;;;3.63;70.51;95344.50;5030450;28;20775;-75
2022/11/29 03:50:13;;;;;;;8.52;4.38;;;;;;;4.36;70.87;95433.31;5019302;28;20056;-76
2022/11/29 03:52:49;;;;;;;6.93;4.20;;;;;;;4.35;71.17;95422.03;5029824;28;20049;-76
2022/11/29 03:55:20;;;;;;;7.05;3.85;;;;;;;4.08;71.37;95424.31;5028184;28;20087;-76
2022/11/29 03:58:37;;;;;;;7.55;3.75;;;;;;;4.25;71.33;95427.06;5049788;28;20040;-76
2022/11/29 04:01:32;;;;;;;8.43;4.32;;;;;;;3.83;71.18;95351.03;4998442;28;20124;-76
2022/11/29 04:04:35;;;;;;;7.68;3.90;;;;;;;4.40;70.71;95431.84;5029609;28;20104;-76
2022/11/29 04:07:15;;;;;;;5.55;3.50;;;;;;;3.98;70.88;95362.88;5029789;28;20080;-76
2022/11/29 04:10:13;;;;;;;5.40;3.45;;;;;;;4.31;70.48;95423.50;5029552;28;20045;-77
2022/11/29 04:13:10;;;;;;;6.88;3.45;;;;;;;4.36;70.63;95425.44;5045552;28;20144;-77
2022/11/29 04:15:47;;;;;;;7.25;3.92;;;;;;;4.23;70.59;95427.28;5011478;28;20046;-77
2022/11/29 04:18:25;;;;;;;7.82;4.32;;;;;;;4.19;71.01;95427.97;5029935;28;20567;-77
2022/11/29 04:21:17;;;;;;;8.63;4.82;;;;;;;4.25;70.70;95437.56;5044975;28;20500;-77
2022/11/29 04:24:10;;;;;;;9.13;5.00;;;;;;;4.28;70.82;95437.09;5029428;28;20188;-77
2022/11/29 04:26:35;;;;;;;10.10;5.20;;;;;;;4.21;70.59;95437.19;5045156;28;20045;-77
2022/11/29 04:29:07;;;;;;;15.15;7.63;;;;;;;4.15;70.60;95440.75;5029392;28;20104;-77
2022/11/29 04:32:06;;;;;;;17.40;7.10;;;;;;;4.26;70.49;95442.59;5032250;28;20084;-77
2022/11/29 04:34:50;;;;;;;16.77;7.57;;;;;;;4.31;71.00;95434.03;5033540;28;20064;-77
2022/11/29 04:37:43;;;;;;;13.63;6.70;;;;;;;4.27;71.32;95440.75;5048841;28;20136;-77
2022/11/29 04:40:09;;;;;;;13.35;6.82;;;;;;;4.30;71.48;95448.16;5033559;28;20041;-77
2022/11/29 04:42:59;;;;;;;12.43;6.97;;;;;;;4.28;71.23;95443.13;5033696;28;20052;-77
2022/11/29 04:45:46;;;;;;;10.95;6.63;;;;;;;3.47;70.98;95330.22;5029875;28;20508;-77
2022/11/29 04:48:41;;;;;;;11.80;5.35;;;;;;;4.08;71.34;95434.78;5038466;28;20038;-77
2022/11/29 04:52:00;;;;;;;9.52;5.90;;;;;;;4.17;70.96;95430.03;5038555;28;20045;-77
2022/11/29 04:54:54;;;;;;;9.30;6.03;;;;;;;3.49;71.34;95336.03;4952840;29;20051;-77
2022/11/29 04:57:28;;;;;;;9.48;6.10;;;;;;;4.12;71.31;95435.16;4952011;28;20091;-77
2022/11/29 05:00:00;;;;;;;11.82;6.65;;;;;;;3.26;71.26;95307.97;5026490;28;20045;-77
2022/11/29 05:02:35;;;;;;;14.30;6.68;;;;;;;4.04;71.26;95432.88;5048402;28;20045;-76
2022/11/29 05:05:28;;;;;;;15.18;7.35;;;;;;;4.10;71.47;95431.94;5022775;28;20075;-77
2022/11/29 05:08:08;;;;;;;13.32;6.72;;;;;;;4.06;71.07;95428.16;5035892;28;20037;-77
2022/11/29 05:10:55;;;;;;;11.52;6.72;;;;;;;3.74;71.92;95399.59;5031514;28;20046;-77
2022/11/29 05:13:23;;;;;;;13.60;7.38;;;;;;;4.10;71.55;95424.88;4989977;28;20119;-77
2022/11/29 05:16:10;;;;;;;11.30;6.80;;;;;;;4.06;71.66;95436.84;5049189;28;20140;-77
2022/11/29 05:18:54;;;;;;;15.35;7.38;;;;;;;4.06;71.89;95428.97;5027067;28;20096;-77
2022/11/29 05:21:41;;;;;;;12.38;6.57;;;;;;;3.71;72.05;95375.66;5038924;28;20045;-77
2022/11/29 05:24:44;;;;;;;13.63;7.20;;;;;;;4.11;71.31;95436.19;5023817;28;20067;-77
2022/11/29 05:27:36;;;;;;;10.82;5.90;;;;;;;4.09;71.69;95435.59;5017208;28;20055;-78
2022/11/29 05:30:11;;;;;;;13.77;7.15;;;;;;;3.89;71.29;95386.84;5034871;28;20048;-76
2022/11/29 05:32:51;;;;;;;15.30;7.43;;;;;;;4.14;71.50;95433.09;5020136;28;20469;-76
2022/11/29 05:35:39;;;;;;;14.98;8.13;;;;;;;4.19;71.15;95430.59;5020428;28;20191;-76
2022/11/29 05:38:11;;;;;;;14.25;7.03;;;;;;;3.81;71.14;95395.03;5027465;28;20128;-76
2022/11/29 05:40:44;;;;;;;14.38;8.02;;;;;;;4.07;71.50;95443.69;5041523;28;20047;-76
2022/11/29 05:43:39;;;;;;;13.65;7.57;;;;;;;4.04;71.79;95448.59;5058766;28;20053;-76
2022/11/29 05:46:16;;;;;;;15.00;7.15;;;;;;;3.88;71.66;95400.22;5057138;28;20063;-76
2022/11/29 05:49:03;;;;;;;21.55;8.52;;;;;;;4.21;71.35;95446.91;5040135;28;20047;-77
2022/11/29 05:51:28;;;;;;;19.40;8.90;;;;;;;4.20;71.69;95438.22;5024688;28;20037;-78
2022/11/29 05:54:12;;;;;;;13.68;7.68;;;;;;;4.22;72.12;95443.25;5044618;28;20060;-79
2022/11/29 05:57:05;;;;;;;17.77;8.18;;;;;;;4.25;71.73;95442.81;5036127;28;20044;-78
2022/11/29 05:59:35;;;;;;;14.27;7.53;;;;;;;3.62;71.20;95348.16;5041360;28;20037;-79
2022/11/29 06:02:07;;;;;;;18.83;7.38;;;;;;;4.25;71.59;95442.81;5056193;28;20781;-79
2022/11/29 06:04:44;;;;;;;17.70;7.55;;;;;;;4.27;71.77;95441.53;5025084;28;20059;-78
2022/11/29 06:07:18;;;;;;;15.38;7.03;;;;;;;3.98;71.83;95403.06;5034648;28;20887;-79
2022/11/29 06:09:51;;;;;;;11.68;6.10;;;;;;;3.62;71.53;95364.69;5034911;28;20051;-80
2022/11/29 06:12:22;;;;;;;10.52;5.70;;;;;;;4.24;71.69;95442.00;5031932;28;20052;-79
2022/11/29 06:15:15;;;;;;;15.30;6.28;;;;;;;4.32;71.25;95443.50;5033945;28;20422;-79
2022/11/29 06:18:01;;;;;;;10.07;6.00;;;;;;;4.36;71.30;95438.56;5032956;28;20048;-82
2022/11/29 06:20:41;;;;;;;18.35;7.18;;;;;;;3.83;71.71;95358.88;5016472;28;20526;-78
2022/11/29 06:23:32;;;;;;;9.32;5.40;;;;;;;4.30;71.68;95442.13;5027446;28;20499;-78
2022/11/29 06:26:18;;;;;;;13.68;5.70;;;;;;;4.23;71.45;95444.84;5019497;28;20113;-79
2022/11/29 06:29:05;;;;;;;9.27;5.70;;;;;;;4.34;71.45;95449.34;5037262;28;20700;-79
2022/11/29 06:31:38;;;;;;;17.88;7.15;;;;;;;4.00;71.57;95381.84;5034533;28;20083;-80
2022/11/29 06:34:16;;;;;;;8.63;5.85;;;;;;;4.43;71.22;95442.69;5017106;28;20103;-80
2022/11/29 06:36:53;;;;;;;11.65;5.68;;;;;;;4.38;70.96;95442.59;5039149;28;20048;-79
2022/11/29 06:39:18;;;;;;;12.25;6.65;;;;;;;3.89;71.39;95380.81;5018620;28;20045;-79
2022/11/29 06:41:45;;;;;;;13.20;7.25;;;;;;;4.08;71.39;95389.38;5021007;28;20040;-78
2022/11/29 06:44:11;;;;;;;15.10;7.90;;;;;;;3.29;70.75;95283.91;5036284;28;20055;-78
2022/11/29 06:46:46;;;;;;;17.23;8.38;;;;;;;4.42;71.23;95443.75;5037486;28;20044;-78
2022/11/29 06:49:20;;;;;;;18.98;7.75;;;;;;;4.40;71.03;95451.03;5034128;28;20055;-78
2022/11/29 06:52:10;;;;;;;18.92;8.73;;;;;;;4.42;70.47;95450.81;5035196;28;20064;-78
2022/11/29 06:54:38;;;;;;;17.75;9.65;;;;;;;4.43;71.35;95455.81;5036140;28;20045;-78
2022/11/29 06:57:41;;;;;;;19.38;9.77;;;;;;;4.55;70.89;95454.00;5037810;28;20715;-78
2022/11/29 07:00:19;;;;;;;19.10;10.00;;;;;;;4.50;71.28;95458.34;5036923;28;20044;-78
2022/11/29 07:02:51;;;;;;;19.30;9.23;;;;;;;4.49;71.20;95454.94;5034184;28;20491;-78
2022/11/29 07:05:24;;;;;;;17.35;8.30;;;;;;;4.45;71.70;95451.16;5045673;28;20041;-77
2022/11/29 07:07:53;;;;;;;18.08;8.30;;;;;;;4.24;71.28;95383.44;5030328;28;20035;-77
2022/11/29 07:10:20;;;;;;;16.90;9.18;;;;;;;4.76;71.07;95459.69;5027901;28;20044;-77
2022/11/29 07:12:49;;;;;;;20.83;9.38;;;;;;;4.75;71.68;95464.16;5028066;28;20139;-79
2022/11/29 07:15:20;;;;;;;17.45;8.40;;;;;;;4.63;71.44;95426.59;5028327;28;20565;-78
2022/11/29 07:18:01;;;;;;;14.77;7.95;;;;;;;4.78;71.44;95452.41;5021639;28;20049;-79
2022/11/29 07:20:35;;;;;;;17.90;8.70;;;;;;;4.77;71.02;95456.03;5036361;28;20049;-80
2022/11/29 07:23:27;;;;;;;14.10;7.18;;;;;;;4.63;71.08;95410.84;5037416;28;20052;-80
2022/11/29 07:26:21;;;;;;;;;;;;;;;4.85;70.22;95461.75;5041823;28;20041;-80
2022/11/29 07:29:05;;;;;;;11.55;6.70;;;;;;;5.00;69.91;95464.69;5015836;28;19921;-80
2022/11/29 07:31:41;;;;;;;14.73;7.50;;;;;;;3.77;69.71;95273.25;5037198;28;21487;-79
2022/11/29 07:34:22;;;;;;;15.18;8.00;;;;;;;4.98;70.50;95464.13;5037845;28;20558;-80
2022/11/29 07:37:04;;;;;;;18.08;7.60;;;;;;;5.14;70.17;95469.69;5035610;28;20447;-80
2022/11/29 07:39:39;;;;;;;11.70;6.95;;;;;;;5.11;70.23;95465.69;5051475;28;20837;-79
2022/11/29 07:42:42;;;;;;;11.45;5.53;;;;;;;5.10;69.01;95455.44;5016852;28;20048;-79
2022/11/29 07:45:24;;;;;;;14.60;4.68;;;;;;;5.15;69.14;95468.66;5042422;28;20746;-81
2022/11/29 07:47:50;;;;;;;9.85;4.63;;;;;;;4.53;68.23;95348.38;5040602;28;20145;-80
2022/11/29 07:50:16;;;;;;;10.13;4.70;;;;;;;5.17;67.82;95462.16;5043701;28;20120;-81
2022/11/29 07:52:42;;;;;;;15.15;4.25;;;;;;;4.37;68.04;95341.19;5021707;28;20090;-81
2022/11/29 07:55:17;;;;;;;9.55;3.85;;;;;;;5.12;68.03;95461.22;5009221;28;20128;-82
2022/11/29 07:57:47;;;;;;;9.45;3.50;;;;;;;5.18;69.22;95463.75;5023126;28;20198;-83
2022/11/29 08:00:13;;;;;;;6.95;3.65;;;;;;;4.65;68.62;95375.41;5040457;28;20100;-80
2022/11/29 08:02:39;;;;;;;8.38;4.65;;;;;;;4.99;68.20;95412.34;5022687;28;20049;-81
2022/11/29 08:05:05;;;;;;;7.93;4.72;;;;;;;4.75;68.80;95381.91;5020308;28;20049;-82
2022/11/29 08:07:34;;;;;;;14.07;4.55;;;;;;;5.23;68.47;95450.69;5038864;28;20072;-82
2022/11/29 08:10:05;;;;;;;8.43;4.35;;;;;;;4.14;68.78;95265.91;5022865;28;20052;-84
2022/11/29 08:12:30;;;;;;;8.85;4.72;;;;;;;4.98;68.11;95416.00;5013810;28;20045;-80
2022/11/29 08:14:56;;;;;;;9.75;4.72;;;;;;;4.15;67.90;95279.81;5018736;28;20033;-81
2022/11/29 08:17:21;;;;;;;8.05;4.78;;;;;;;4.56;67.83;95331.34;5022164;28;20296;-81
2022/11/29 08:19:47;;;;;;;9.57;4.45;;;;;;;4.91;67.62;95381.97;5035619;28;20580;-81
2022/11/29 08:22:15;;;;;;;4.78;3.63;;;;;;;4.88;67.51;95385.06;5041232;28;20433;-81
2022/11/29 08:24:41;;;;;;;5.10;3.13;;;;;;;4.60;67.84;95367.44;5023704;28;20041;-81
2022/11/29 08:27:06;;;;;;;8.13;3.70;;;;;;;4.85;67.74;95388.16;5024420;28;20033;-81
2022/11/29 08:29:32;;;;;;;12.88;4.07;;;;;;;5.11;68.43;95421.00;5024398;28;20083;-81
2022/11/29 08:31:57;;;;;;;9.30;5.07;;;;;;;4.51;67.52;95312.84;5039919;28;20087;-81
2022/11/29 08:34:23;;;;;;;9.55;4.10;;;;;;;5.43;68.11;95452.91;5021488;28;20048;-81
2022/11/29 08:36:49;;;;;;;6.78;3.88;;;;;;;4.99;67.77;95407.91;5039347;28;20102;-80
2022/11/29 08:39:17;;;;;;;6.97;4.05;;;;;;;4.56;67.84;95308.53;5038661;28;20967;-80
2022/11/29 08:41:43;;;;;;;7.80;4.03;;;;;;;4.94;67.55;95360.50;5035383;28;20040;-80
2022/11/29 08:44:08;;;;;;;6.57;3.33;;;;;;;4.99;67.36;95360.59;5020004;28;20059;-80
2022/11/29 08:49:18;;;;;;;7.53;3.83;;;;;;;5.40;66.47;95421.84;5036761;28;20495;-81
2022/11/29 08:51:44;;;;;;;11.57;5.75;;;;;;;5.65;65.89;95474.91;5038857;28;20045;-82
2022/11/29 08:54:09;;;;;;;12.85;4.55;;;;;;;4.95;66.87;95348.97;5022453;28;20053;-82
2022/11/29 08:56:36;;;;;;;16.95;5.75;;;;;;;5.71;67.06;95471.34;5046945;28;20056;-82
2022/11/29 08:59:03;;;;;;;6.55;4.03;;;;;;;5.08;66.18;95353.13;5051076;28;20040;-84
2022/11/29 09:01:28;;;;;;;5.90;3.88;;;;;;;5.04;65.15;95344.91;5033240;28;20048;-81
2022/11/29 09:04:03;;;;;;;17.60;4.53;;;;;;;4.97;66.34;95378.41;5018979;28;20055;-80
2022/11/29 09:06:37;;;;;;;8.35;4.75;;;;;;;5.70;66.62;95461.88;5023673;28;20178;-80
2022/11/29 09:09:03;;;;;;;6.95;4.05;;;;;;;4.96;66.02;95353.16;5027462;28;20045;-80
2022/11/29 09:11:31;;;;;;;12.15;4.97;;;;;;;5.40;65.96;95398.97;5043202;28;20052;-80
2022/11/29 09:13:59;;;;;;;6.97;4.28;;;;;;;4.53;65.64;95271.41;5009435;28;20037;-80
2022/11/29 09:16:27;;;;;;;8.32;4.70;;;;;;;4.99;65.22;95347.44;5024335;28;20045;-81
2022/11/29 09:18:54;;;;;;;14.68;5.05;;;;;;;5.47;66.52;95450.63;5038577;28;20779;-81
2022/11/29 09:21:23;;;;;;;11.70;5.47;;;;;;;5.62;66.25;95459.59;5024696;28;20045;-82
2022/11/29 09:23:48;;;;;;;10.07;5.45;;;;;;;5.72;66.18;95459.00;5027415;28;20574;-81
2022/11/29 09:26:18;;;;;;;12.30;5.60;;;;;;;5.18;66.77;95363.84;5045714;28;20205;-81
2022/11/29 09:28:45;;;;;;;8.88;4.95;;;;;;;5.72;67.19;95448.47;5044987;28;20033;-82
2022/11/29 09:31:16;;;;;;;12.45;5.88;;;;;;;4.74;67.37;95304.91;5043606;28;20072;-81
2022/11/29 09:33:44;;;;;;;15.53;6.20;;;;;;;5.82;66.91;95448.63;5046935;28;20083;-81
2022/11/29 09:36:11;;;;;;;15.88;7.55;;;;;;;5.29;66.90;95365.63;5029044;28;20647;-81
2022/11/29 09:38:38;;;;;;;12.93;6.15;;;;;;;5.45;67.44;95387.72;5026599;28;20040;-81
2022/11/29 09:41:37;;;;;;;13.55;5.80;;;;;;;5.84;66.58;95436.03;5044963;28;20118;-82
2022/11/29 09:44:36;;;;;;;15.13;6.25;;;;;;;5.77;67.44;95432.75;5027008;28;20119;-80
2022/11/29 09:47:30;;;;;;;14.85;7.07;;;;;;;5.60;68.05;95419.56;5029029;28;20044;-82
2022/11/29 09:49:59;;;;;;;17.85;8.32;;;;;;;5.63;67.29;95405.16;5056334;28;20049;-81
2022/11/29 09:52:47;;;;;;;15.38;8.23;;;;;;;5.33;66.72;95347.56;5022655;28;20040;-81
2022/11/29 09:55:31;;;;;;;19.52;6.85;;;;;;;5.82;66.41;95417.84;5040987;28;20040;-82
2022/11/29 09:57:59;;;;;;;11.88;6.75;;;;;;;5.42;67.79;95375.03;5040093;28;20111;-80
2022/11/29 10:00:27;;;;;;;14.82;7.78;;;;;;;5.89;67.43;95411.66;5024950;28;20036;-81
2022/11/29 10:02:59;;;;;;;14.80;7.82;;;;;;;5.92;66.59;95411.19;5023234;28;20037;-81
2022/11/29 10:05:34;;;;;;;16.90;7.65;;;;;;;5.58;67.43;95376.09;5042008;28;20554;-81
2022/11/29 10:08:12;;;;;;;11.35;6.65;;;;;;;5.19;67.70;95285.78;5040417;28;20033;-80
2022/11/29 10:10:49;;;;;;;11.35;6.10;;;;;;;6.15;66.77;95401.31;5024403;28;20048;-80
2022/11/29 10:13:31;;;;;;;12.70;6.15;;;;;;;6.06;67.40;95402.75;5025735;28;20482;-81
2022/11/29 10:16:04;;;;;;;9.48;5.18;;;;;;;5.15;67.30;95247.84;5021997;28;20035;-81
2022/11/29 10:19:11;;;;;;;7.88;5.20;;;;;;;5.74;66.26;95347.19;5040063;28;21953;-81
2022/11/29 10:21:42;;;;;;;10.35;5.05;;;;;;;5.07;66.49;95237.69;4992982;28;20037;-81
2022/11/29 10:24:16;;;;;;;11.55;4.97;;;;;;;5.11;65.99;95223.06;5041682;28;20036;-80
2022/11/29 10:26:42;;;;;;;10.88;5.18;;;;;;;5.63;65.59;95277.03;5037092;28;20048;-80
2022/11/29 10:29:17;;;;;;;19.67;6.28;;;;;;;6.46;65.86;95391.22;5038179;28;20045;-80
2022/11/29 10:31:48;;;;;;;13.02;5.75;;;;;;;5.77;66.92;95315.13;5021011;28;20041;-84
2022/11/29 10:34:19;;;;;;;13.40;5.38;;;;;;;6.17;67.30;95387.91;5031029;28;20044;-82
2022/11/29 10:36:51;;;;;;;10.02;4.82;;;;;;;5.00;67.04;95183.47;5017874;28;20095;-81
2022/11/29 10:39:24;;;;;;;11.15;5.40;;;;;;;5.76;67.83;95316.16;5032787;28;20568;-82
2022/11/29 10:41:58;;;;;;;10.38;5.10;;;;;;;6.10;67.59;95327.50;5037717;28;20724;-81
2022/11/29 10:44:24;;;;;;;10.75;5.63;;;;;;;5.75;67.16;95256.69;5020538;28;20116;-81
2022/11/29 10:46:52;;;;;;;10.15;5.15;;;;;;;6.68;66.53;95380.72;5038572;28;20043;-81
2022/11/29 10:49:20;;;;;;;7.72;4.47;;;;;;;6.30;66.83;95321.72;5022017;28;20094;-80
2022/11/29 10:51:46;;;;;;;12.88;5.38;;;;;;;5.61;67.45;95192.28;5000801;28;20049;-81
2022/11/29 10:54:40;;;;;;;9.05;4.60;;;;;;;6.26;67.38;95327.72;5020573;28;20063;-81
2022/11/29 10:57:16;;;;;;;16.25;4.90;;;;;;;6.81;67.05;95375.88;5015935;28;20052;-81
2022/11/29 10:59:58;;;;;;;8.50;5.28;;;;;;;6.89;67.19;95375.47;5043420;28;20041;-81
2022/11/29 11:02:23;;;;;;;12.60;5.07;;;;;;;6.15;67.62;95253.06;5034184;28;20041;-81
2022/11/29 11:04:49;;;;;;;8.00;4.80;;;;;;;6.41;66.90;95280.50;5038477;28;20047;-80
2022/11/29 11:07:26;;;;;;;13.73;5.18;;;;;;;7.12;67.09;95365.69;5021971;28;20078;-81
2022/11/29 11:09:55;;;;;;;11.25;4.28;;;;;;;7.22;66.78;95365.81;5040691;28;20043;-81
2022/11/29 11:12:25;;;;;;;11.57;4.60;;;;;;;7.30;66.98;95368.00;5033446;28;20048;-82
2022/11/29 11:14:50;;;;;;;6.10;3.92;;;;;;;6.71;66.82;95314.34;5042234;28;20041;-82
2022/11/29 11:17:36;;;;;;;14.98;4.57;;;;;;;6.45;67.32;95286.88;5042637;28;20237;-83
2022/11/29 11:20:14;;;;;;;10.25;4.95;;;;;;;6.77;67.61;95335.25;5040851;28;20495;-81
2022/11/29 11:22:43;;;;;;;17.73;6.25;;;;;;;6.19;67.17;95254.94;5026169;28;20044;-82
2022/11/29 11:25:29;;;;;;;16.60;6.13;;;;;;;6.96;67.31;95375.28;5024001;28;20360;-81
2022/11/29 11:28:09;;;;;;;12.68;5.20;;;;;;;5.75;67.41;95224.31;5040180;28;20037;-82
2022/11/29 11:30:35;;;;;;;16.80;5.57;;;;;;;6.90;67.17;95390.25;5039799;28;20479;-82
2022/11/29 11:33:24;;;;;;;11.43;6.22;;;;;;;6.41;66.91;95314.75;5036166;28;20124;-81
2022/11/29 11:36:31;;;;;;;14.35;5.65;;;;;;;6.22;66.49;95289.75;5032145;28;20127;-80
2022/11/29 11:39:08;;;;;;;10.15;5.30;;;;;;;6.96;65.99;95388.44;5034650;28;20178;-80
2022/11/29 11:44:34;;;;;;;11.43;5.15;;;;;;;6.76;66.61;95385.56;5035643;28;20072;-79
2022/11/29 11:47:00;;;;;;;12.18;4.55;;;;;;;5.73;66.92;95221.09;5020114;28;20045;-79
2022/11/29 11:49:51;;;;;;;8.60;4.75;;;;;;;6.30;66.66;95318.28;5023611;28;20036;-79
2022/11/29 11:52:24;;;;;;;10.20;4.93;;;;;;;6.49;66.48;95351.22;5022138;28;20057;-80
2022/11/29 11:54:54;;;;;;;6.80;4.45;;;;;;;6.52;66.21;95333.09;5024070;28;20145;-80
2022/11/29 11:57:21;;;;;;;9.45;3.97;;;;;;;6.20;65.61;95300.50;5040264;28;20055;-80
2022/11/29 11:59:52;;;;;;;12.73;4.97;;;;;;;6.81;65.85;95381.16;5038898;28;20052;-80
2022/11/29 12:02:43;;;;;;;11.00;5.45;;;;;;;6.63;66.21;95378.81;5015173;28;20120;-79
2022/11/29 12:05:16;;;;;;;14.20;5.53;;;;;;;6.05;66.11;95281.88;5033527;28;20076;-80
2022/11/29 12:07:56;;;;;;;12.82;6.13;;;;;;;6.57;66.67;95379.78;5020745;28;20080;-80
2022/11/29 12:10:26;;;;;;;16.25;5.43;;;;;;;6.54;67.05;95388.97;5018889;28;20045;-79
2022/11/29 12:12:53;;;;;;;14.15;5.57;;;;;;;5.97;66.96;95305.97;5022099;28;20051;-80
2022/11/29 12:15:24;;;;;;;12.93;5.28;;;;;;;5.10;66.71;95161.00;5035730;28;20060;-79
2022/11/29 12:17:55;;;;;;;15.02;6.00;;;;;;;6.50;66.79;95373.88;5037408;28;20114;-80
2022/11/29 12:20:27;;;;;;;11.15;5.75;;;;;;;5.62;66.63;95240.44;5016146;28;20044;-80